createdAt,value
2023-02-09T00:04:18.796Z,-2.72
2023-02-09T00:09:22.875Z,-2.80
2023-02-09T00:14:25.847Z,-2.85
2023-02-09T00:19:29.702Z,-2.95
2023-02-09T00:24:34.903Z,-3.02
2023-02-09T00:29:37.600Z,-3.02
2023-02-09T00:34:40.381Z,-3.03
2023-02-09T00:39:44.518Z,-3.14
2023-02-09T00:44:47.208Z,-3.19
2023-02-09T00:49:50.913Z,-3.31
2023-02-09T00:54:55.084Z,-3.32
2023-02-09T00:59:57.807Z,-3.38
2023-02-09T01:05:00.773Z,-3.30
2023-02-09T01:10:05.653Z,-3.33
2023-02-09T01:15:11.134Z,-3.37
2023-02-09T01:20:14.913Z,-3.41
2023-02-09T01:25:19.220Z,-3.50
2023-02-09T01:30:22.031Z,-3.56
2023-02-09T01:35:24.799Z,-3.61
2023-02-09T01:40:28.953Z,-3.58
2023-02-09T01:45:36.225Z,-3.59
2023-02-09T01:50:42.134Z,-3.62
2023-02-09T01:55:51.494Z,-3.66
2023-02-09T02:00:54.629Z,-3.74
2023-02-09T02:06:01.258Z,-3.73
2023-02-09T02:11:05.642Z,-3.82
2023-02-09T02:16:20.795Z,-3.82
2023-02-09T02:22:15.193Z,-3.77
2023-02-09T02:27:31.505Z,-3.83
2023-02-09T02:32:44.152Z,-3.89
2023-02-09T02:37:57.066Z,-3.95
2023-02-09T02:43:07.132Z,-4.00
2023-02-09T02:48:21.782Z,-4.02
2023-02-09T02:53:29.172Z,-4.06
2023-02-09T02:58:34.298Z,-4.08
2023-02-09T03:03:41.403Z,-4.14
2023-02-09T03:08:48.922Z,-4.19
2023-02-09T03:14:06.149Z,-4.31
2023-02-09T03:19:20.393Z,-4.30
2023-02-09T03:24:35.205Z,-4.34
2023-02-09T03:29:40.084Z,-4.42
2023-02-09T03:34:45.675Z,-4.49
2023-02-09T03:39:48.430Z,-4.59
2023-02-09T03:44:51.139Z,-4.74
2023-02-09T03:49:55.287Z,-4.72
2023-02-09T03:54:58.031Z,-4.74
2023-02-09T04:00:01.719Z,-4.85
2023-02-09T04:05:16.030Z,-4.97
2023-02-09T04:10:19.158Z,-4.91
2023-02-09T04:15:21.866Z,-4.99
2023-02-09T04:20:25.913Z,-5.15
2023-02-09T04:25:28.781Z,-5.17
2023-02-09T04:30:31.592Z,-5.21
2023-02-09T04:35:35.760Z,-5.22
2023-02-09T04:40:38.584Z,-5.26
2023-02-09T04:45:42.197Z,-5.27
2023-02-09T04:50:47.157Z,-5.38
2023-02-09T04:55:52.516Z,-5.52
2023-02-09T05:00:56.250Z,-5.56
2023-02-09T05:06:02.892Z,-5.60
2023-02-09T05:11:05.905Z,-5.60
2023-02-09T05:16:10.747Z,-5.61
2023-02-09T05:21:15.308Z,-5.71
2023-02-09T05:26:18.052Z,-5.74
2023-02-09T05:31:20.947Z,-5.66
2023-02-09T05:36:25.125Z,-5.70
2023-02-09T05:41:45.421Z,-5.71
2023-02-09T05:46:48.144Z,-5.71
2023-02-09T05:51:52.317Z,-5.76
2023-02-09T05:56:55.165Z,-5.82
2023-02-09T06:01:58.324Z,-5.91
2023-02-09T06:07:02.515Z,-5.97
2023-02-09T06:12:05.748Z,-6.00
2023-02-09T06:17:08.563Z,-6.14
2023-02-09T06:22:12.705Z,-6.13
2023-02-09T06:27:15.426Z,-6.15
2023-02-09T06:32:18.270Z,-6.19
2023-02-09T06:37:22.530Z,-6.19
2023-02-09T06:42:25.366Z,-6.20
2023-02-09T06:47:28.156Z,-6.22
2023-02-09T06:52:32.397Z,-6.15
2023-02-09T06:57:35.483Z,-6.06
2023-02-09T07:02:38.239Z,-6.09
2023-02-09T07:07:43.030Z,-6.09
2023-02-09T07:12:46.243Z,-5.86
2023-02-09T07:17:49.017Z,-5.65
2023-02-09T07:22:53.099Z,-5.40
2023-02-09T07:27:55.926Z,-5.19
2023-02-09T07:32:58.743Z,-5.00
2023-02-09T07:38:02.868Z,-4.84
2023-02-09T07:43:06.159Z,-4.52
2023-02-09T07:48:10.978Z,-4.20
2023-02-09T07:53:15.180Z,-3.87
2023-02-09T07:58:19.905Z,-3.70
2023-02-09T08:03:25.257Z,-3.46
2023-02-09T08:08:30.248Z,-3.32
2023-02-09T08:13:37.884Z,-3.08
2023-02-09T08:18:43.497Z,-2.96
2023-02-09T08:23:52.554Z,-2.72
2023-02-09T08:28:55.837Z,-2.59
2023-02-09T08:33:58.745Z,-2.30
2023-02-09T08:39:03.208Z,-2.24
2023-02-09T08:44:06.452Z,-2.16
2023-02-09T08:49:09.268Z,-2.00
2023-02-09T08:54:13.404Z,-1.71
2023-02-09T08:59:18.430Z,-1.61
2023-02-09T09:04:22.669Z,-1.65
2023-02-09T09:09:26.826Z,-1.32
2023-02-09T09:14:30.067Z,-1.14
2023-02-09T09:19:32.880Z,-1.12
2023-02-09T09:24:40.634Z,-0.77
2023-02-09T09:29:44.037Z,-0.56
2023-02-09T09:34:46.828Z,-0.16
2023-02-09T09:39:51.435Z,-0.12
2023-02-09T09:44:55.851Z,0.25
2023-02-09T09:49:58.812Z,0.12
2023-02-09T09:55:06.691Z,0.26
2023-02-09T10:00:19.109Z,0.54
2023-02-09T10:05:24.940Z,0.62
2023-02-09T10:10:38.976Z,1.13
2023-02-09T10:15:41.831Z,1.31
2023-02-09T10:20:48.660Z,1.65
2023-02-09T10:26:03.833Z,1.99
2023-02-09T10:31:16.676Z,2.27
2023-02-09T10:36:32.531Z,2.43
2023-02-09T10:41:37.795Z,2.81
2023-02-09T10:46:41.727Z,2.98
2023-02-09T10:51:44.680Z,3.27
2023-02-09T10:56:50.227Z,3.38
2023-02-09T11:01:56.920Z,3.65
2023-02-09T11:07:01.913Z,4.03
2023-02-09T11:12:10.978Z,4.35
2023-02-09T11:17:17.545Z,4.53
2023-02-09T11:22:29.422Z,5.13
2023-02-09T11:28:01.377Z,5.09
2023-02-09T11:33:16.284Z,5.58
2023-02-09T11:38:24.398Z,5.75
2023-02-09T11:43:33.564Z,5.80
2023-02-09T11:48:39.964Z,6.38
2023-02-09T11:53:49.781Z,6.76
2023-02-09T11:59:01.300Z,6.78
2023-02-09T12:04:11.710Z,7.71
2023-02-09T12:09:30.353Z,8.46
2023-02-09T12:14:49.092Z,8.04
2023-02-09T12:19:58.682Z,8.27
2023-02-09T12:25:20.256Z,8.86
2023-02-09T12:31:01.311Z,8.93
2023-02-09T12:36:29.762Z,8.35
2023-02-09T12:42:11.081Z,7.67
2023-02-09T12:47:46.240Z,8.28
2023-02-09T12:53:22.510Z,8.01
2023-02-09T12:58:54.937Z,7.61
2023-02-09T13:04:02.652Z,7.00
2023-02-09T13:09:10.861Z,7.04
2023-02-09T13:14:17.416Z,6.47
2023-02-09T13:19:52.738Z,6.33
2023-02-09T13:25:00.568Z,6.12
2023-02-09T13:30:03.395Z,6.17
2023-02-09T13:35:22.305Z,5.99
2023-02-09T13:40:27.115Z,5.76
2023-02-09T13:45:31.060Z,5.79
2023-02-09T13:50:35.315Z,5.76
2023-02-09T13:55:40.745Z,5.96
2023-02-09T14:00:46.331Z,5.39
2023-02-09T14:05:56.667Z,5.56
2023-02-09T14:11:06.840Z,5.08
2023-02-09T14:16:10.507Z,5.21
2023-02-09T14:21:31.079Z,5.23
2023-02-09T14:26:38.200Z,4.91
2023-02-09T14:31:43.166Z,4.67
2023-02-09T14:36:53.987Z,4.86
2023-02-09T14:42:15.040Z,4.82
2023-02-09T14:47:37.406Z,4.79
2023-02-09T14:52:46.705Z,4.61
2023-02-09T14:57:49.690Z,4.69
2023-02-09T15:02:53.963Z,4.87
2023-02-09T15:08:05.824Z,4.55
2023-02-09T15:13:09.157Z,4.43
2023-02-09T15:18:19.650Z,4.62
2023-02-09T15:23:23.794Z,4.40
2023-02-09T15:28:29.976Z,4.37
2023-02-09T15:33:32.811Z,4.32
2023-02-09T15:38:37.391Z,4.22
2023-02-09T15:43:57.662Z,4.04
2023-02-09T15:49:00.498Z,3.89
2023-02-09T15:54:09.068Z,3.70
2023-02-09T15:59:18.807Z,3.63
2023-02-09T16:04:21.604Z,3.47
2023-02-09T16:09:28.572Z,3.21
2023-02-09T16:14:31.693Z,3.15
2023-02-09T16:19:34.693Z,3.02
2023-02-09T16:24:42.487Z,2.76
2023-02-09T16:29:45.272Z,2.56
2023-02-09T16:34:48.035Z,2.36
2023-02-09T16:39:52.276Z,2.24
2023-02-09T16:44:56.502Z,2.03
2023-02-09T16:50:01.057Z,1.85
2023-02-09T16:55:11.297Z,1.66
2023-02-09T17:00:15.809Z,1.46
2023-02-09T17:05:21.436Z,1.32
2023-02-09T17:10:28.802Z,1.20
2023-02-09T17:15:36.820Z,1.13
2023-02-09T17:20:44.038Z,1.03
2023-02-09T17:25:50.761Z,0.98
2023-02-09T17:30:57.945Z,0.89
2023-02-09T17:41:32.513Z,0.68
2023-02-09T17:46:35.675Z,0.56
2023-02-09T17:51:41.294Z,0.50
2023-02-09T17:56:46.315Z,0.40
2023-02-09T18:01:50.686Z,0.22
2023-02-09T18:06:54.350Z,0.24
2023-02-09T18:12:02.389Z,0.14
2023-02-09T18:17:05.206Z,0.00
2023-02-09T18:22:08.266Z,-0.06
2023-02-09T18:27:16.025Z,-0.13
2023-02-09T18:32:21.024Z,-0.30
2023-02-09T18:37:24.205Z,-0.28
2023-02-09T18:42:28.277Z,-0.30
2023-02-09T18:47:31.478Z,-0.34
2023-02-09T18:52:34.755Z,-0.43
2023-02-09T18:57:39.495Z,-0.55
2023-02-09T19:02:44.324Z,-0.71
2023-02-09T19:07:50.004Z,-0.82
2023-02-09T19:12:55.425Z,-0.88
2023-02-09T19:17:58.214Z,-0.96
2023-02-09T19:23:02.342Z,-1.01
2023-02-09T19:28:06.574Z,-1.08
2023-02-09T19:33:09.356Z,-1.14
2023-02-09T19:38:12.168Z,-1.21
2023-02-09T19:43:16.356Z,-1.29
2023-02-09T19:48:19.422Z,-1.48
2023-02-09T19:53:22.180Z,-1.55
2023-02-09T19:58:26.400Z,-1.59
2023-02-09T20:03:29.960Z,-1.67
2023-02-09T20:08:32.728Z,-1.72
2023-02-09T20:13:38.085Z,-1.83
2023-02-09T20:18:41.088Z,-1.89
2023-02-09T20:23:45.764Z,-1.96
2023-02-09T20:28:50.969Z,-1.96
2023-02-09T20:33:54.672Z,-2.07
2023-02-09T20:38:57.399Z,-2.10
2023-02-09T20:44:18.986Z,-2.19
2023-02-09T20:49:23.338Z,-2.25
2023-02-09T20:54:26.108Z,-2.31
2023-02-09T20:59:30.998Z,-2.50
2023-02-09T21:04:33.709Z,-2.47
2023-02-09T21:09:36.533Z,-2.51
2023-02-09T21:14:43.229Z,-2.56
2023-02-09T21:19:46.151Z,-2.68
2023-02-09T21:24:48.891Z,-2.75
2023-02-09T21:29:53.016Z,-2.78
2023-02-09T21:34:55.730Z,-2.75
2023-02-09T21:40:01.936Z,-2.73
2023-02-09T21:45:08.023Z,-2.73
2023-02-09T21:50:12.786Z,-2.78
2023-02-09T21:55:15.667Z,-2.78
2023-02-09T22:00:20.143Z,-2.77
2023-02-09T22:05:22.950Z,-2.78
2023-02-09T22:10:25.714Z,-2.88
2023-02-09T22:15:29.785Z,-2.90
2023-02-09T22:20:32.537Z,-2.97
2023-02-09T22:25:36.129Z,-3.04
2023-02-09T22:30:40.254Z,-3.13
2023-02-09T22:35:43.053Z,-3.16
2023-02-09T22:40:45.766Z,-3.23
2023-02-09T22:45:55.849Z,-3.14
2023-02-09T22:50:58.617Z,-3.29
2023-02-09T22:56:02.916Z,-3.32
2023-02-09T23:01:08.036Z,-3.32
2023-02-09T23:06:14.220Z,-3.44
2023-02-09T23:11:18.353Z,-3.41
2023-02-09T23:16:24.473Z,-3.43
2023-02-09T23:21:29.809Z,-3.61
2023-02-09T23:26:32.673Z,-3.60
2023-02-09T23:31:37.527Z,-3.54
2023-02-09T23:36:40.231Z,-3.54
2023-02-09T23:41:43.158Z,-3.53
2023-02-09T23:46:47.244Z,-3.51
2023-02-09T23:51:50.098Z,-3.49
2023-02-09T23:56:53.623Z,-3.32
